sensor_id;sensor_type;location;lat;lon;timestamp;P1;durP1;ratioP1;P2;durP2;ratioP2
59659;SDS011;45534;52.690;6.268;2024-02-15T00:02:03;14.50;;;9.15;;
59659;SDS011;45534;52.690;6.268;2024-02-15T00:04:29;13.38;;;7.90;;
59659;SDS011;45534;52.690;6.268;2024-02-15T00:06:56;7.75;;;4.97;;
59659;SDS011;45534;52.690;6.268;2024-02-15T00:09:22;14.75;;;8.25;;
59659;SDS011;45534;52.690;6.268;2024-02-15T00:11:48;12.77;;;9.25;;
59659;SDS011;45534;52.690;6.268;2024-02-15T00:14:13;14.20;;;7.47;;
59659;SDS011;45534;52.690;6.268;2024-02-15T00:16:39;16.33;;;6.60;;
59659;SDS011;45534;52.690;6.268;2024-02-15T00:19:05;13.43;;;7.97;;
59659;SDS011;45534;52.690;6.268;2024-02-15T00:21:34;24.40;;;11.80;;
59659;SDS011;45534;52.690;6.268;2024-02-15T00:24:01;12.93;;;8.15;;
59659;SDS011;45534;52.690;6.268;2024-02-15T00:26:26;17.50;;;8.15;;
59659;SDS011;45534;52.690;6.268;2024-02-15T00:28:52;21.35;;;10.77;;
59659;SDS011;45534;52.690;6.268;2024-02-15T00:31:18;12.43;;;8.32;;
59659;SDS011;45534;52.690;6.268;2024-02-15T00:33:43;26.02;;;10.00;;
59659;SDS011;45534;52.690;6.268;2024-02-15T00:36:10;13.90;;;7.07;;
59659;SDS011;45534;52.690;6.268;2024-02-15T00:38:36;22.85;;;8.98;;
59659;SDS011;45534;52.690;6.268;2024-02-15T00:41:02;7.95;;;6.07;;
59659;SDS011;45534;52.690;6.268;2024-02-15T00:43:27;13.15;;;9.63;;
59659;SDS011;45534;52.690;6.268;2024-02-15T00:45:53;23.98;;;12.18;;
59659;SDS011;45534;52.690;6.268;2024-02-15T00:48:19;23.90;;;12.02;;
59659;SDS011;45534;52.690;6.268;2024-02-15T00:50:45;12.65;;;8.70;;
59659;SDS011;45534;52.690;6.268;2024-02-15T00:53:11;15.43;;;8.73;;
59659;SDS011;45534;52.690;6.268;2024-02-15T00:55:36;30.85;;;12.65;;
59659;SDS011;45534;52.690;6.268;2024-02-15T00:58:02;28.40;;;13.70;;
59659;SDS011;45534;52.690;6.268;2024-02-15T01:00:28;25.88;;;12.10;;
59659;SDS011;45534;52.690;6.268;2024-02-15T01:02:54;15.88;;;9.05;;
59659;SDS011;45534;52.690;6.268;2024-02-15T01:05:21;17.08;;;10.52;;
59659;SDS011;45534;52.690;6.268;2024-02-15T01:07:47;11.63;;;6.53;;
59659;SDS011;45534;52.690;6.268;2024-02-15T01:10:15;20.13;;;8.18;;
59659;SDS011;45534;52.690;6.268;2024-02-15T01:12:41;12.45;;;8.18;;
59659;SDS011;45534;52.690;6.268;2024-02-15T01:15:07;12.65;;;7.82;;
59659;SDS011;45534;52.690;6.268;2024-02-15T01:17:33;23.55;;;9.45;;
59659;SDS011;45534;52.690;6.268;2024-02-15T01:19:58;17.35;;;9.00;;
59659;SDS011;45534;52.690;6.268;2024-02-15T01:22:24;13.15;;;8.43;;
59659;SDS011;45534;52.690;6.268;2024-02-15T01:24:52;20.02;;;8.90;;
59659;SDS011;45534;52.690;6.268;2024-02-15T01:27:18;19.77;;;9.75;;
59659;SDS011;45534;52.690;6.268;2024-02-15T01:29:44;13.85;;;9.23;;
59659;SDS011;45534;52.690;6.268;2024-02-15T01:32:10;19.42;;;9.43;;
59659;SDS011;45534;52.690;6.268;2024-02-15T01:34:36;14.82;;;6.57;;
59659;SDS011;45534;52.690;6.268;2024-02-15T01:37:01;21.75;;;8.65;;
59659;SDS011;45534;52.690;6.268;2024-02-15T01:39:27;22.20;;;12.75;;
59659;SDS011;45534;52.690;6.268;2024-02-15T01:41:53;20.33;;;10.73;;
59659;SDS011;45534;52.690;6.268;2024-02-15T01:44:21;18.08;;;6.60;;
59659;SDS011;45534;52.690;6.268;2024-02-15T01:46:49;27.05;;;10.48;;
59659;SDS011;45534;52.690;6.268;2024-02-15T01:49:18;17.08;;;11.57;;
59659;SDS011;45534;52.690;6.268;2024-02-15T01:51:44;12.98;;;8.55;;
59659;SDS011;45534;52.690;6.268;2024-02-15T01:54:11;18.08;;;9.70;;
59659;SDS011;45534;52.690;6.268;2024-02-15T01:56:38;18.40;;;8.93;;
59659;SDS011;45534;52.690;6.268;2024-02-15T01:59:04;20.65;;;9.85;;
59659;SDS011;45534;52.690;6.268;2024-02-15T02:01:31;20.73;;;7.20;;
59659;SDS011;45534;52.690;6.268;2024-02-15T02:03:58;22.15;;;8.18;;
59659;SDS011;45534;52.690;6.268;2024-02-15T02:06:25;11.52;;;6.22;;
59659;SDS011;45534;52.690;6.268;2024-02-15T02:08:51;25.55;;;10.60;;
59659;SDS011;45534;52.690;6.268;2024-02-15T02:11:17;16.25;;;6.63;;
59659;SDS011;45534;52.690;6.268;2024-02-15T02:13:43;12.40;;;7.80;;
59659;SDS011;45534;52.690;6.268;2024-02-15T02:16:23;18.02;;;7.88;;
59659;SDS011;45534;52.690;6.268;2024-02-15T02:18:54;11.60;;;7.03;;
59659;SDS011;45534;52.690;6.268;2024-02-15T02:21:21;18.48;;;7.32;;
59659;SDS011;45534;52.690;6.268;2024-02-15T02:23:48;22.67;;;11.93;;
59659;SDS011;45534;52.690;6.268;2024-02-15T02:26:18;16.42;;;8.32;;
59659;SDS011;45534;52.690;6.268;2024-02-15T02:28:48;14.75;;;8.88;;
59659;SDS011;45534;52.690;6.268;2024-02-15T02:31:14;19.48;;;10.00;;
59659;SDS011;45534;52.690;6.268;2024-02-15T02:33:43;13.95;;;9.90;;
59659;SDS011;45534;52.690;6.268;2024-02-15T02:36:19;23.27;;;10.77;;
59659;SDS011;45534;52.690;6.268;2024-02-15T02:38:45;13.35;;;8.43;;
59659;SDS011;45534;52.690;6.268;2024-02-15T02:41:15;14.70;;;9.55;;
59659;SDS011;45534;52.690;6.268;2024-02-15T02:43:42;18.20;;;10.95;;
59659;SDS011;45534;52.690;6.268;2024-02-15T02:46:11;14.65;;;9.40;;
59659;SDS011;45534;52.690;6.268;2024-02-15T02:48:37;21.80;;;13.32;;
59659;SDS011;45534;52.690;6.268;2024-02-15T02:51:04;20.58;;;11.13;;
59659;SDS011;45534;52.690;6.268;2024-02-15T02:53:31;19.80;;;10.68;;
59659;SDS011;45534;52.690;6.268;2024-02-15T02:55:59;14.48;;;6.95;;
59659;SDS011;45534;52.690;6.268;2024-02-15T02:58:25;22.75;;;7.40;;
59659;SDS011;45534;52.690;6.268;2024-02-15T03:00:51;12.77;;;7.10;;
59659;SDS011;45534;52.690;6.268;2024-02-15T03:03:17;17.30;;;8.38;;
59659;SDS011;45534;52.690;6.268;2024-02-15T03:05:48;19.40;;;10.48;;
59659;SDS011;45534;52.690;6.268;2024-02-15T03:08:13;13.13;;;8.88;;
59659;SDS011;45534;52.690;6.268;2024-02-15T03:10:40;20.55;;;9.20;;
59659;SDS011;45534;52.690;6.268;2024-02-15T03:13:06;25.05;;;11.38;;
59659;SDS011;45534;52.690;6.268;2024-02-15T03:15:34;17.60;;;11.32;;
59659;SDS011;45534;52.690;6.268;2024-02-15T03:18:00;20.60;;;14.10;;
59659;SDS011;45534;52.690;6.268;2024-02-15T03:20:32;18.10;;;8.80;;
59659;SDS011;45534;52.690;6.268;2024-02-15T03:22:59;15.27;;;9.35;;
59659;SDS011;45534;52.690;6.268;2024-02-15T03:25:26;19.88;;;10.65;;
59659;SDS011;45534;52.690;6.268;2024-02-15T03:27:54;15.27;;;7.63;;
59659;SDS011;45534;52.690;6.268;2024-02-15T03:30:27;20.60;;;9.38;;
59659;SDS011;45534;52.690;6.268;2024-02-15T03:32:57;17.48;;;9.07;;
59659;SDS011;45534;52.690;6.268;2024-02-15T03:35:26;22.90;;;12.25;;
59659;SDS011;45534;52.690;6.268;2024-02-15T03:37:56;16.45;;;10.77;;
59659;SDS011;45534;52.690;6.268;2024-02-15T03:40:22;15.00;;;8.85;;
59659;SDS011;45534;52.690;6.268;2024-02-15T03:42:51;21.67;;;13.35;;
59659;SDS011;45534;52.690;6.268;2024-02-15T03:45:17;32.13;;;14.05;;
59659;SDS011;45534;52.690;6.268;2024-02-15T03:47:43;24.10;;;12.73;;
59659;SDS011;45534;52.690;6.268;2024-02-15T03:50:09;29.10;;;9.82;;
59659;SDS011;45534;52.690;6.268;2024-02-15T03:52:35;27.80;;;16.88;;
59659;SDS011;45534;52.690;6.268;2024-02-15T03:55:02;13.10;;;10.20;;
59659;SDS011;45534;52.690;6.268;2024-02-15T03:57:28;25.00;;;13.68;;
59659;SDS011;45534;52.690;6.268;2024-02-15T03:59:54;22.42;;;12.25;;
59659;SDS011;45534;52.690;6.268;2024-02-15T04:02:22;19.55;;;12.05;;
59659;SDS011;45534;52.690;6.268;2024-02-15T04:04:49;33.90;;;18.48;;
59659;SDS011;45534;52.690;6.268;2024-02-15T04:07:17;27.25;;;16.33;;
59659;SDS011;45534;52.690;6.268;2024-02-15T04:09:43;29.88;;;16.88;;
59659;SDS011;45534;52.690;6.268;2024-02-15T04:12:12;22.48;;;14.45;;
59659;SDS011;45534;52.690;6.268;2024-02-15T04:14:39;16.75;;;12.73;;
59659;SDS011;45534;52.690;6.268;2024-02-15T04:17:06;26.08;;;15.55;;
59659;SDS011;45534;52.690;6.268;2024-02-15T04:19:32;25.60;;;15.35;;
59659;SDS011;45534;52.690;6.268;2024-02-15T04:21:58;26.58;;;14.20;;
59659;SDS011;45534;52.690;6.268;2024-02-15T04:24:25;30.67;;;17.85;;
59659;SDS011;45534;52.690;6.268;2024-02-15T04:26:51;27.35;;;17.35;;
59659;SDS011;45534;52.690;6.268;2024-02-15T04:29:18;38.08;;;18.48;;
59659;SDS011;45534;52.690;6.268;2024-02-15T04:31:45;24.20;;;15.38;;
59659;SDS011;45534;52.690;6.268;2024-02-15T04:34:15;20.02;;;12.77;;
59659;SDS011;45534;52.690;6.268;2024-02-15T04:36:43;27.98;;;18.58;;
59659;SDS011;45534;52.690;6.268;2024-02-15T04:39:11;23.42;;;15.73;;
59659;SDS011;45534;52.690;6.268;2024-02-15T04:41:44;17.13;;;13.57;;
59659;SDS011;45534;52.690;6.268;2024-02-15T04:44:11;23.60;;;16.05;;
59659;SDS011;45534;52.690;6.268;2024-02-15T04:46:37;37.88;;;19.08;;
59659;SDS011;45534;52.690;6.268;2024-02-15T04:49:03;27.00;;;13.65;;
59659;SDS011;45534;52.690;6.268;2024-02-15T04:51:31;37.95;;;21.83;;
59659;SDS011;45534;52.690;6.268;2024-02-15T04:53:57;28.85;;;17.55;;
59659;SDS011;45534;52.690;6.268;2024-02-15T04:56:23;24.23;;;17.25;;
59659;SDS011;45534;52.690;6.268;2024-02-15T04:58:49;29.17;;;19.33;;
59659;SDS011;45534;52.690;6.268;2024-02-15T05:01:16;26.25;;;15.45;;
59659;SDS011;45534;52.690;6.268;2024-02-15T05:03:43;26.17;;;16.92;;
59659;SDS011;45534;52.690;6.268;2024-02-15T05:06:09;23.35;;;16.70;;
59659;SDS011;45534;52.690;6.268;2024-02-15T05:08:35;23.40;;;13.75;;
59659;SDS011;45534;52.690;6.268;2024-02-15T05:13:38;24.50;;;16.65;;
59659;SDS011;45534;52.690;6.268;2024-02-15T05:16:04;30.05;;;17.02;;
59659;SDS011;45534;52.690;6.268;2024-02-15T05:18:30;23.42;;;15.07;;
59659;SDS011;45534;52.690;6.268;2024-02-15T05:20:56;17.58;;;11.82;;
59659;SDS011;45534;52.690;6.268;2024-02-15T05:23:22;20.08;;;13.60;;
59659;SDS011;45534;52.690;6.268;2024-02-15T05:25:48;21.08;;;12.10;;
59659;SDS011;45534;52.690;6.268;2024-02-15T05:28:13;20.27;;;11.52;;
59659;SDS011;45534;52.690;6.268;2024-02-15T05:30:39;24.50;;;13.48;;
59659;SDS011;45534;52.690;6.268;2024-02-15T05:33:05;37.53;;;17.58;;
59659;SDS011;45534;52.690;6.268;2024-02-15T05:35:35;24.02;;;13.13;;
59659;SDS011;45534;52.690;6.268;2024-02-15T05:38:04;19.17;;;13.02;;
59659;SDS011;45534;52.690;6.268;2024-02-15T05:40:32;23.95;;;12.98;;
59659;SDS011;45534;52.690;6.268;2024-02-15T05:42:57;16.05;;;11.98;;
59659;SDS011;45534;52.690;6.268;2024-02-15T05:47:52;21.17;;;13.68;;
59659;SDS011;45534;52.690;6.268;2024-02-15T05:50:18;20.75;;;10.18;;
59659;SDS011;45534;52.690;6.268;2024-02-15T05:52:49;19.70;;;13.50;;
59659;SDS011;45534;52.690;6.268;2024-02-15T05:55:18;21.67;;;12.27;;
59659;SDS011;45534;52.690;6.268;2024-02-15T05:57:44;20.83;;;12.43;;
59659;SDS011;45534;52.690;6.268;2024-02-15T06:00:10;22.23;;;11.40;;
59659;SDS011;45534;52.690;6.268;2024-02-15T06:02:36;16.70;;;11.10;;
59659;SDS011;45534;52.690;6.268;2024-02-15T06:05:02;23.45;;;11.35;;
59659;SDS011;45534;52.690;6.268;2024-02-15T06:07:29;26.23;;;13.77;;
59659;SDS011;45534;52.690;6.268;2024-02-15T06:09:57;24.40;;;11.70;;
59659;SDS011;45534;52.690;6.268;2024-02-15T06:12:28;24.80;;;12.70;;
59659;SDS011;45534;52.690;6.268;2024-02-15T06:14:57;19.02;;;12.45;;
59659;SDS011;45534;52.690;6.268;2024-02-15T06:17:22;18.38;;;10.18;;
59659;SDS011;45534;52.690;6.268;2024-02-15T06:19:49;17.58;;;9.10;;
59659;SDS011;45534;52.690;6.268;2024-02-15T06:22:15;20.85;;;11.40;;
59659;SDS011;45534;52.690;6.268;2024-02-15T06:24:41;15.70;;;11.43;;
59659;SDS011;45534;52.690;6.268;2024-02-15T06:27:06;19.40;;;11.20;;
59659;SDS011;45534;52.690;6.268;2024-02-15T06:29:32;18.13;;;10.73;;
59659;SDS011;45534;52.690;6.268;2024-02-15T06:32:17;17.00;;;10.75;;
59659;SDS011;45534;52.690;6.268;2024-02-15T06:35:01;11.05;;;7.88;;
59659;SDS011;45534;52.690;6.268;2024-02-15T06:37:45;13.57;;;8.55;;
59659;SDS011;45534;52.690;6.268;2024-02-15T06:40:30;21.30;;;8.65;;
59659;SDS011;45534;52.690;6.268;2024-02-15T06:42:56;16.17;;;8.85;;
59659;SDS011;45534;52.690;6.268;2024-02-15T06:45:21;10.27;;;6.80;;
59659;SDS011;45534;52.690;6.268;2024-02-15T06:47:48;9.50;;;8.00;;
59659;SDS011;45534;52.690;6.268;2024-02-15T06:50:14;15.95;;;8.38;;
59659;SDS011;45534;52.690;6.268;2024-02-15T06:52:40;13.73;;;7.97;;
59659;SDS011;45534;52.690;6.268;2024-02-15T06:55:06;13.13;;;8.70;;
59659;SDS011;45534;52.690;6.268;2024-02-15T06:57:33;15.32;;;8.13;;
59659;SDS011;45534;52.690;6.268;2024-02-15T07:00:03;15.70;;;7.03;;
59659;SDS011;45534;52.690;6.268;2024-02-15T07:02:35;13.80;;;6.43;;
59659;SDS011;45534;52.690;6.268;2024-02-15T07:05:01;11.43;;;7.50;;
59659;SDS011;45534;52.690;6.268;2024-02-15T07:07:30;13.75;;;7.35;;
59659;SDS011;45534;52.690;6.268;2024-02-15T07:09:57;24.25;;;8.27;;
59659;SDS011;45534;52.690;6.268;2024-02-15T07:12:23;15.02;;;8.50;;
59659;SDS011;45534;52.690;6.268;2024-02-15T07:14:48;11.73;;;8.35;;
59659;SDS011;45534;52.690;6.268;2024-02-15T07:17:14;10.75;;;6.40;;
59659;SDS011;45534;52.690;6.268;2024-02-15T07:19:43;13.45;;;8.27;;
59659;SDS011;45534;52.690;6.268;2024-02-15T07:22:09;9.90;;;6.90;;
59659;SDS011;45534;52.690;6.268;2024-02-15T07:24:35;11.18;;;6.85;;
59659;SDS011;45534;52.690;6.268;2024-02-15T07:27:03;13.95;;;8.48;;
59659;SDS011;45534;52.690;6.268;2024-02-15T07:29:30;12.80;;;7.90;;
59659;SDS011;45534;52.690;6.268;2024-02-15T07:32:01;12.23;;;9.65;;
59659;SDS011;45534;52.690;6.268;2024-02-15T07:34:29;7.70;;;6.32;;
59659;SDS011;45534;52.690;6.268;2024-02-15T07:36:55;14.15;;;10.30;;
59659;SDS011;45534;52.690;6.268;2024-02-15T07:39:23;18.42;;;8.10;;
59659;SDS011;45534;52.690;6.268;2024-02-15T07:41:52;16.48;;;6.45;;
59659;SDS011;45534;52.690;6.268;2024-02-15T07:44:18;16.92;;;9.23;;
59659;SDS011;45534;52.690;6.268;2024-02-15T07:46:45;17.45;;;6.75;;
59659;SDS011;45534;52.690;6.268;2024-02-15T07:49:11;16.35;;;7.47;;
59659;SDS011;45534;52.690;6.268;2024-02-15T07:51:37;13.27;;;8.00;;
59659;SDS011;45534;52.690;6.268;2024-02-15T07:54:03;13.15;;;8.10;;
59659;SDS011;45534;52.690;6.268;2024-02-15T07:56:29;10.32;;;8.50;;
59659;SDS011;45534;52.690;6.268;2024-02-15T07:58:55;10.75;;;7.38;;
59659;SDS011;45534;52.690;6.268;2024-02-15T08:01:21;11.40;;;7.07;;
59659;SDS011;45534;52.690;6.268;2024-02-15T08:03:47;11.18;;;5.95;;
59659;SDS011;45534;52.690;6.268;2024-02-15T08:06:14;12.27;;;7.63;;
59659;SDS011;45534;52.690;6.268;2024-02-15T08:08:41;14.98;;;7.47;;
59659;SDS011;45534;52.690;6.268;2024-02-15T08:11:09;12.25;;;8.20;;
59659;SDS011;45534;52.690;6.268;2024-02-15T08:14:00;12.63;;;8.40;;
59659;SDS011;45534;52.690;6.268;2024-02-15T08:16:25;9.73;;;7.00;;
59659;SDS011;45534;52.690;6.268;2024-02-15T08:18:54;14.52;;;6.47;;
59659;SDS011;45534;52.690;6.268;2024-02-15T08:21:26;10.88;;;5.57;;
59659;SDS011;45534;52.690;6.268;2024-02-15T08:23:58;10.27;;;7.13;;
59659;SDS011;45534;52.690;6.268;2024-02-15T08:26:25;12.98;;;9.38;;
59659;SDS011;45534;52.690;6.268;2024-02-15T08:28:51;13.68;;;7.35;;
59659;SDS011;45534;52.690;6.268;2024-02-15T08:31:17;15.05;;;6.80;;
59659;SDS011;45534;52.690;6.268;2024-02-15T08:33:46;15.68;;;9.18;;
59659;SDS011;45534;52.690;6.268;2024-02-15T08:36:12;12.27;;;7.18;;
59659;SDS011;45534;52.690;6.268;2024-02-15T08:38:40;13.88;;;8.55;;
59659;SDS011;45534;52.690;6.268;2024-02-15T08:41:06;11.80;;;6.55;;
59659;SDS011;45534;52.690;6.268;2024-02-15T08:43:33;8.80;;;6.28;;
59659;SDS011;45534;52.690;6.268;2024-02-15T08:45:59;10.25;;;5.45;;
59659;SDS011;45534;52.690;6.268;2024-02-15T08:48:26;13.63;;;8.77;;
59659;SDS011;45534;52.690;6.268;2024-02-15T08:50:52;9.85;;;8.45;;
59659;SDS011;45534;52.690;6.268;2024-02-15T08:53:17;11.23;;;7.32;;
59659;SDS011;45534;52.690;6.268;2024-02-15T08:55:47;9.50;;;5.80;;
59659;SDS011;45534;52.690;6.268;2024-02-15T08:58:13;10.77;;;7.18;;
59659;SDS011;45534;52.690;6.268;2024-02-15T09:00:39;12.30;;;7.05;;
59659;SDS011;45534;52.690;6.268;2024-02-15T09:03:10;11.65;;;6.13;;
59659;SDS011;45534;52.690;6.268;2024-02-15T09:05:36;8.02;;;6.68;;
59659;SDS011;45534;52.690;6.268;2024-02-15T09:08:03;11.13;;;5.72;;
59659;SDS011;45534;52.690;6.268;2024-02-15T09:10:29;13.98;;;9.65;;
59659;SDS011;45534;52.690;6.268;2024-02-15T09:12:55;16.80;;;8.68;;
59659;SDS011;45534;52.690;6.268;2024-02-15T09:15:21;8.82;;;7.00;;
59659;SDS011;45534;52.690;6.268;2024-02-15T09:17:48;13.90;;;8.25;;
59659;SDS011;45534;52.690;6.268;2024-02-15T09:20:17;8.75;;;6.82;;
59659;SDS011;45534;52.690;6.268;2024-02-15T09:22:52;14.85;;;7.00;;
59659;SDS011;45534;52.690;6.268;2024-02-15T09:25:19;9.43;;;5.85;;
59659;SDS011;45534;52.690;6.268;2024-02-15T09:27:48;16.58;;;9.43;;
59659;SDS011;45534;52.690;6.268;2024-02-15T09:30:15;7.68;;;5.28;;
59659;SDS011;45534;52.690;6.268;2024-02-15T09:32:41;11.75;;;6.82;;
59659;SDS011;45534;52.690;6.268;2024-02-15T09:35:08;8.40;;;5.90;;
59659;SDS011;45534;52.690;6.268;2024-02-15T09:37:38;7.20;;;4.88;;
59659;SDS011;45534;52.690;6.268;2024-02-15T09:40:09;8.48;;;6.43;;
59659;SDS011;45534;52.690;6.268;2024-02-15T09:42:36;9.02;;;7.13;;
59659;SDS011;45534;52.690;6.268;2024-02-15T09:45:04;6.50;;;5.22;;
59659;SDS011;45534;52.690;6.268;2024-02-15T09:47:34;8.48;;;4.75;;
59659;SDS011;45534;52.690;6.268;2024-02-15T09:50:06;6.97;;;4.78;;
59659;SDS011;45534;52.690;6.268;2024-02-15T09:52:32;9.02;;;5.78;;
59659;SDS011;45534;52.690;6.268;2024-02-15T09:55:04;8.85;;;4.85;;
59659;SDS011;45534;52.690;6.268;2024-02-15T09:57:31;5.68;;;4.72;;
59659;SDS011;45534;52.690;6.268;2024-02-15T09:59:58;5.03;;;3.95;;
59659;SDS011;45534;52.690;6.268;2024-02-15T10:02:32;4.07;;;3.63;;
59659;SDS011;45534;52.690;6.268;2024-02-15T10:05:01;7.80;;;4.40;;
59659;SDS011;45534;52.690;6.268;2024-02-15T10:07:27;6.43;;;4.90;;
59659;SDS011;45534;52.690;6.268;2024-02-15T10:09:54;7.00;;;4.00;;
59659;SDS011;45534;52.690;6.268;2024-02-15T10:12:20;7.07;;;4.47;;
59659;SDS011;45534;52.690;6.268;2024-02-15T10:14:49;6.22;;;4.18;;
59659;SDS011;45534;52.690;6.268;2024-02-15T10:17:20;7.85;;;3.47;;
59659;SDS011;45534;52.690;6.268;2024-02-15T10:20:04;9.25;;;4.43;;
59659;SDS011;45534;52.690;6.268;2024-02-15T10:22:31;11.10;;;4.78;;
59659;SDS011;45534;52.690;6.268;2024-02-15T10:25:10;7.13;;;4.45;;
59659;SDS011;45534;52.690;6.268;2024-02-15T10:30:17;6.30;;;3.67;;
59659;SDS011;45534;52.690;6.268;2024-02-15T10:32:44;6.95;;;4.15;;
59659;SDS011;45534;52.690;6.268;2024-02-15T10:35:18;4.82;;;4.15;;
59659;SDS011;45534;52.690;6.268;2024-02-15T10:37:45;3.65;;;2.92;;
59659;SDS011;45534;52.690;6.268;2024-02-15T10:40:12;9.68;;;4.25;;
59659;SDS011;45534;52.690;6.268;2024-02-15T10:42:42;4.50;;;4.05;;
59659;SDS011;45534;52.690;6.268;2024-02-15T10:45:08;5.55;;;4.53;;
59659;SDS011;45534;52.690;6.268;2024-02-15T10:47:37;7.30;;;4.80;;
59659;SDS011;45534;52.690;6.268;2024-02-15T10:50:04;6.63;;;4.43;;
59659;SDS011;45534;52.690;6.268;2024-02-15T10:52:32;5.82;;;2.83;;
59659;SDS011;45534;52.690;6.268;2024-02-15T10:55:03;8.93;;;5.57;;
59659;SDS011;45534;52.690;6.268;2024-02-15T10:57:33;5.88;;;5.10;;
59659;SDS011;45534;52.690;6.268;2024-02-15T11:00:04;6.38;;;4.15;;
59659;SDS011;45534;52.690;6.268;2024-02-15T11:02:42;7.90;;;4.60;;
59659;SDS011;45534;52.690;6.268;2024-02-15T11:05:12;5.10;;;4.30;;
59659;SDS011;45534;52.690;6.268;2024-02-15T11:07:46;5.50;;;4.32;;
59659;SDS011;45534;52.690;6.268;2024-02-15T11:10:11;8.10;;;4.10;;
59659;SDS011;45534;52.690;6.268;2024-02-15T11:12:42;5.47;;;3.53;;
59659;SDS011;45534;52.690;6.268;2024-02-15T11:15:08;4.85;;;3.72;;
59659;SDS011;45534;52.690;6.268;2024-02-15T11:20:05;7.68;;;5.53;;
59659;SDS011;45534;52.690;6.268;2024-02-15T11:22:35;6.93;;;4.20;;
59659;SDS011;45534;52.690;6.268;2024-02-15T11:25:07;3.22;;;2.92;;
59659;SDS011;45534;52.690;6.268;2024-02-15T11:27:36;4.30;;;3.92;;
59659;SDS011;45534;52.690;6.268;2024-02-15T11:30:03;4.07;;;3.38;;
59659;SDS011;45534;52.690;6.268;2024-02-15T11:35:16;8.38;;;4.95;;
59659;SDS011;45534;52.690;6.268;2024-02-15T11:40:15;3.88;;;3.55;;
59659;SDS011;45534;52.690;6.268;2024-02-15T11:42:55;5.15;;;4.65;;
59659;SDS011;45534;52.690;6.268;2024-02-15T11:45:24;6.50;;;3.92;;
59659;SDS011;45534;52.690;6.268;2024-02-15T11:47:53;5.82;;;3.65;;
59659;SDS011;45534;52.690;6.268;2024-02-15T11:50:21;5.38;;;4.85;;
59659;SDS011;45534;52.690;6.268;2024-02-15T11:52:48;6.95;;;4.40;;
59659;SDS011;45534;52.690;6.268;2024-02-15T11:55:18;6.13;;;4.68;;
59659;SDS011;45534;52.690;6.268;2024-02-15T11:58:00;8.40;;;4.63;;
59659;SDS011;45534;52.690;6.268;2024-02-15T12:00:33;4.40;;;3.97;;
59659;SDS011;45534;52.690;6.268;2024-02-15T12:03:17;4.80;;;3.78;;
59659;SDS011;45534;52.690;6.268;2024-02-15T12:06:02;6.05;;;4.45;;
59659;SDS011;45534;52.690;6.268;2024-02-15T12:08:47;5.82;;;4.97;;
59659;SDS011;45534;52.690;6.268;2024-02-15T12:11:33;5.55;;;4.00;;
59659;SDS011;45534;52.690;6.268;2024-02-15T12:14:18;12.98;;;6.05;;
59659;SDS011;45534;52.690;6.268;2024-02-15T12:17:06;5.65;;;4.05;;
59659;SDS011;45534;52.690;6.268;2024-02-15T12:19:52;7.40;;;4.47;;
59659;SDS011;45534;52.690;6.268;2024-02-15T12:22:21;7.90;;;5.50;;
59659;SDS011;45534;52.690;6.268;2024-02-15T12:25:00;5.68;;;4.95;;
59659;SDS011;45534;52.690;6.268;2024-02-15T12:27:31;9.82;;;5.50;;
59659;SDS011;45534;52.690;6.268;2024-02-15T12:29:57;10.18;;;6.43;;
59659;SDS011;45534;52.690;6.268;2024-02-15T12:32:24;15.05;;;6.75;;
59659;SDS011;45534;52.690;6.268;2024-02-15T12:34:51;5.05;;;3.38;;
59659;SDS011;45534;52.690;6.268;2024-02-15T12:37:35;9.07;;;4.93;;
59659;SDS011;45534;52.690;6.268;2024-02-15T12:40:14;9.40;;;6.43;;
59659;SDS011;45534;52.690;6.268;2024-02-15T12:42:44;8.27;;;4.85;;
59659;SDS011;45534;52.690;6.268;2024-02-15T12:45:21;5.40;;;4.28;;
59659;SDS011;45534;52.690;6.268;2024-02-15T12:47:50;8.80;;;5.90;;
59659;SDS011;45534;52.690;6.268;2024-02-15T12:50:17;9.02;;;5.25;;
59659;SDS011;45534;52.690;6.268;2024-02-15T12:52:45;8.88;;;5.10;;
59659;SDS011;45534;52.690;6.268;2024-02-15T12:55:13;8.00;;;4.80;;
59659;SDS011;45534;52.690;6.268;2024-02-15T12:57:45;12.48;;;8.45;;
59659;SDS011;45534;52.690;6.268;2024-02-15T13:00:18;17.92;;;7.30;;
59659;SDS011;45534;52.690;6.268;2024-02-15T13:02:46;5.63;;;4.13;;
59659;SDS011;45534;52.690;6.268;2024-02-15T13:05:14;12.05;;;6.22;;
59659;SDS011;45534;52.690;6.268;2024-02-15T13:07:50;14.30;;;6.10;;
59659;SDS011;45534;52.690;6.268;2024-02-15T13:10:16;12.88;;;6.53;;
59659;SDS011;45534;52.690;6.268;2024-02-15T13:12:43;13.13;;;6.82;;
59659;SDS011;45534;52.690;6.268;2024-02-15T13:15:10;10.18;;;6.57;;
59659;SDS011;45534;52.690;6.268;2024-02-15T13:17:40;11.18;;;5.63;;
59659;SDS011;45534;52.690;6.268;2024-02-15T13:20:10;10.77;;;6.82;;
59659;SDS011;45534;52.690;6.268;2024-02-15T13:22:38;8.68;;;5.82;;
59659;SDS011;45534;52.690;6.268;2024-02-15T13:25:08;10.93;;;6.72;;
59659;SDS011;45534;52.690;6.268;2024-02-15T13:27:38;11.93;;;5.85;;
59659;SDS011;45534;52.690;6.268;2024-02-15T13:30:04;6.72;;;5.65;;
59659;SDS011;45534;52.690;6.268;2024-02-15T13:32:35;11.30;;;7.00;;
59659;SDS011;45534;52.690;6.268;2024-02-15T13:35:02;10.43;;;7.03;;
59659;SDS011;45534;52.690;6.268;2024-02-15T13:37:46;12.65;;;7.78;;
59659;SDS011;45534;52.690;6.268;2024-02-15T13:40:13;12.35;;;6.78;;
59659;SDS011;45534;52.690;6.268;2024-02-15T13:42:45;20.45;;;9.52;;
59659;SDS011;45534;52.690;6.268;2024-02-15T13:45:22;12.75;;;8.27;;
59659;SDS011;45534;52.690;6.268;2024-02-15T13:47:51;9.05;;;6.32;;
59659;SDS011;45534;52.690;6.268;2024-02-15T13:50:18;12.02;;;7.03;;
59659;SDS011;45534;52.690;6.268;2024-02-15T13:52:45;20.83;;;8.98;;
59659;SDS011;45534;52.690;6.268;2024-02-15T13:55:15;16.38;;;6.15;;
59659;SDS011;45534;52.690;6.268;2024-02-15T13:57:43;10.25;;;5.90;;
59659;SDS011;45534;52.690;6.268;2024-02-15T14:00:12;10.63;;;5.53;;
59659;SDS011;45534;52.690;6.268;2024-02-15T14:02:47;13.60;;;7.18;;
59659;SDS011;45534;52.690;6.268;2024-02-15T14:05:13;15.23;;;9.10;;
59659;SDS011;45534;52.690;6.268;2024-02-15T14:07:39;16.95;;;9.98;;
59659;SDS011;45534;52.690;6.268;2024-02-15T14:10:05;16.08;;;6.28;;
59659;SDS011;45534;52.690;6.268;2024-02-15T14:12:32;10.32;;;7.53;;
59659;SDS011;45534;52.690;6.268;2024-02-15T14:14:58;8.35;;;7.15;;
59659;SDS011;45534;52.690;6.268;2024-02-15T14:17:24;15.90;;;6.55;;
59659;SDS011;45534;52.690;6.268;2024-02-15T14:19:50;15.13;;;8.20;;
59659;SDS011;45534;52.690;6.268;2024-02-15T14:22:16;11.68;;;7.63;;
59659;SDS011;45534;52.690;6.268;2024-02-15T14:24:42;10.20;;;7.78;;
59659;SDS011;45534;52.690;6.268;2024-02-15T14:27:09;7.78;;;5.20;;
59659;SDS011;45534;52.690;6.268;2024-02-15T14:29:36;14.93;;;7.60;;
59659;SDS011;45534;52.690;6.268;2024-02-15T14:32:09;20.02;;;7.20;;
59659;SDS011;45534;52.690;6.268;2024-02-15T14:34:56;14.05;;;8.18;;
59659;SDS011;45534;52.690;6.268;2024-02-15T14:37:22;19.13;;;7.45;;
59659;SDS011;45534;52.690;6.268;2024-02-15T14:39:49;15.35;;;8.90;;
59659;SDS011;45534;52.690;6.268;2024-02-15T14:42:15;15.65;;;10.32;;
59659;SDS011;45534;52.690;6.268;2024-02-15T14:44:41;19.83;;;8.55;;
59659;SDS011;45534;52.690;6.268;2024-02-15T14:47:08;15.60;;;6.28;;
59659;SDS011;45534;52.690;6.268;2024-02-15T14:49:33;11.00;;;7.57;;
59659;SDS011;45534;52.690;6.268;2024-02-15T14:52:00;10.50;;;7.45;;
59659;SDS011;45534;52.690;6.268;2024-02-15T14:54:27;10.52;;;7.40;;
59659;SDS011;45534;52.690;6.268;2024-02-15T14:56:52;19.70;;;6.47;;